Time;durP1;ratioP1;P1;durP2;ratioP2;P2;SDS_P1;SDS_P2;PMS_P1;PMS_P2;Temp;Humidity;BMP_temperature;BMP_pressure;BME280_temperature;BME280_humidity;BME280_pressure;Samples;Min_cycle;Max_cycle;Signal;HPM_P1;HPM_P2
2023/08/09 00:00:53;;;;;;;3.75;1.60;;;13.50;99.90;;;15.03;100.00;100272.69;5054421;28;20048;-79
2023/08/09 00:03:19;;;;;;;3.70;1.40;;;13.50;99.90;;;14.54;100.00;100244.00;5036616;28;20037;-80
2023/08/09 00:05:45;;;;;;;4.40;1.60;;;13.50;99.90;;;14.53;100.00;100251.38;5041509;28;20037;-79
2023/08/09 00:08:11;;;;;;;4.10;1.63;;;13.40;99.90;;;14.53;100.00;100248.66;5029074;28;20072;-79
2023/08/09 00:10:37;;;;;;;4.18;1.58;;;13.40;99.90;;;14.72;100.00;100253.88;5036536;28;20037;-79
2023/08/09 00:13:03;;;;;;;3.42;1.58;;;13.40;99.90;;;15.25;100.00;100256.16;5043499;28;20061;-79
2023/08/09 00:15:29;;;;;;;6.63;1.67;;;13.40;99.90;;;15.55;100.00;100265.00;5046928;28;20056;-80
2023/08/09 00:17:55;;;;;;;3.00;1.40;;;13.40;99.90;;;15.55;100.00;100271.31;5061292;28;20037;-79
2023/08/09 00:20:22;;;;;;;3.22;1.38;;;13.40;99.90;;;15.44;100.00;100266.81;5044022;28;20041;-78
2023/08/09 00:22:49;;;;;;;2.70;1.40;;;13.30;99.90;;;15.53;100.00;100259.75;5038560;28;20036;-77
2023/08/09 00:25:15;;;;;;;3.38;1.30;;;13.30;99.90;;;15.29;100.00;100256.50;5038039;28;20060;-78
2023/08/09 00:27:42;;;;;;;2.85;1.42;;;13.40;99.90;;;15.56;100.00;100266.66;5048070;28;20029;-77
2023/08/09 00:30:13;;;;;;;4.47;1.42;;;13.30;99.90;;;14.96;100.00;100261.88;5057957;28;20046;-79
2023/08/09 00:32:40;;;;;;;3.25;1.50;;;13.30;99.90;;;14.75;100.00;100252.56;5044741;28;20073;-79
2023/08/09 00:35:08;;;;;;;4.15;1.50;;;13.30;99.90;;;14.78;100.00;100241.88;5054848;28;20054;-80
2023/08/09 00:37:38;;;;;;;2.33;1.40;;;13.20;99.90;;;14.62;100.00;100254.53;5035105;28;20096;-79
2023/08/09 00:40:07;;;;;;;2.60;1.40;;;13.20;99.90;;;14.60;100.00;100240.25;5025437;28;20113;-78
2023/08/09 00:42:34;;;;;;;2.60;1.40;;;13.20;99.90;;;14.45;100.00;100238.13;5029906;28;20037;-78
2023/08/09 00:45:00;;;;;;;1.85;1.13;;;13.20;99.90;;;14.47;100.00;100240.63;5047941;28;20100;-78
2023/08/09 00:47:26;;;;;;;2.55;1.20;;;13.10;99.90;;;14.39;100.00;100241.88;5051625;28;20052;-78
2023/08/09 00:49:52;;;;;;;3.00;1.35;;;13.10;99.90;;;14.35;100.00;100248.97;5033925;28;20034;-77
2023/08/09 00:52:19;;;;;;;2.33;1.20;;;13.00;99.90;;;14.43;100.00;100251.25;5053994;28;20038;-78
2023/08/09 00:54:48;;;;;;;2.88;1.20;;;13.10;99.90;;;14.49;100.00;100261.22;5027442;28;20025;-78
2023/08/09 00:57:14;;;;;;;2.28;1.20;;;13.00;99.90;;;14.38;100.00;100252.00;5038473;28;20030;-79
2023/08/09 00:59:43;;;;;;;2.50;1.25;;;13.00;99.90;;;14.36;100.00;100245.13;5020170;28;20077;-80
2023/08/09 01:02:11;;;;;;;2.10;1.27;;;13.00;99.90;;;14.37;100.00;100247.59;5033040;28;20030;-80
2023/08/09 01:04:37;;;;;;;2.60;1.40;;;13.00;99.90;;;14.31;100.00;100236.78;5024556;28;20045;-79
2023/08/09 01:07:32;;;;;;;2.45;1.40;;;12.90;99.90;;;14.29;100.00;100253.53;5025474;28;20041;-80
2023/08/09 01:10:13;;;;;;;3.08;1.30;;;12.90;99.90;;;14.17;100.00;100252.78;5023502;28;20052;-79
2023/08/09 01:12:48;;;;;;;2.22;1.30;;;12.80;99.90;;;14.04;100.00;100210.91;5020097;28;20060;-79
2023/08/09 01:15:19;;;;;;;2.45;1.13;;;12.70;99.90;;;14.52;100.00;100244.25;5020771;28;20078;-79
2023/08/09 01:17:51;;;;;;;3.63;1.50;;;12.70;99.90;;;14.14;100.00;100245.91;5029791;28;20517;-79
2023/08/09 01:20:19;;;;;;;5.45;1.30;;;12.70;99.90;;;14.03;100.00;100244.06;5025855;28;20088;-79
2023/08/09 01:22:57;;;;;;;2.08;1.30;;;12.60;99.90;;;14.56;100.00;100241.00;5030493;28;20029;-80
2023/08/09 01:25:24;;;;;;;3.55;1.50;;;12.60;99.90;;;14.75;100.00;100258.84;5022139;28;20188;-80
2023/08/09 01:27:51;;;;;;;4.17;1.60;;;12.60;99.90;;;14.72;100.00;100264.00;5029308;28;20401;-80
2023/08/09 01:30:16;;;;;;;2.20;1.33;;;12.50;99.90;;;14.58;100.00;100269.84;5024795;28;20125;-80
2023/08/09 01:32:46;;;;;;;2.58;1.50;;;12.40;99.90;;;14.47;100.00;100262.56;5033098;28;20065;-79
2023/08/09 01:35:12;;;;;;;3.58;1.30;;;12.40;99.90;;;14.39;100.00;100267.38;5028362;28;20042;-79
2023/08/09 01:37:59;;;;;;;2.83;1.60;;;12.30;99.90;;;14.36;100.00;100261.59;5017157;28;20110;-79
2023/08/09 01:40:27;;;;;;;2.40;1.30;;;12.30;99.90;;;14.49;100.00;100266.72;5021693;28;20038;-79
2023/08/09 01:42:54;;;;;;;6.13;2.13;;;12.30;99.90;;;14.50;100.00;100271.13;5021558;28;20048;-79
2023/08/09 01:45:22;;;;;;;2.42;1.17;;;12.30;99.90;;;14.37;100.00;100282.47;5025563;28;20297;-79
2023/08/09 01:47:48;;;;;;;2.25;1.52;;;12.30;99.90;;;14.21;100.00;100281.41;5026935;28;20072;-79
2023/08/09 01:50:26;;;;;;;3.38;1.45;;;12.30;99.90;;;14.23;100.00;100285.53;5032407;28;20065;-79
2023/08/09 01:52:55;;;;;;;;;;;12.30;99.90;;;14.01;100.00;100277.22;5026005;28;20042;-79
2023/08/09 01:55:24;;;;;;;4.43;1.33;;;12.20;99.90;;;13.59;100.00;100296.78;5028320;28;19980;-79
2023/08/09 01:57:50;;;;;;;2.53;1.67;;;12.20;99.90;;;13.24;100.00;100268.41;5045233;28;20116;-79
2023/08/09 02:00:20;;;;;;;3.47;1.80;;;12.20;99.90;;;13.25;100.00;100256.38;5029918;28;20033;-79
2023/08/09 02:02:47;;;;;;;2.70;1.30;;;12.10;99.90;;;13.12;100.00;100248.47;5031046;28;20033;-79
2023/08/09 02:05:13;;;;;;;3.65;1.70;;;12.00;99.90;;;13.04;100.00;100242.31;5024944;28;20128;-79
2023/08/09 02:07:42;;;;;;;4.20;1.90;;;11.90;99.90;;;12.92;100.00;100227.78;5027396;28;20061;-79
2023/08/09 02:10:10;;;;;;;3.78;1.48;;;11.80;99.90;;;12.87;100.00;100233.19;5030802;28;20108;-79
2023/08/09 02:12:37;;;;;;;4.78;1.67;;;11.70;99.90;;;12.77;100.00;100220.94;5044951;28;20401;-79
2023/08/09 02:15:04;;;;;;;4.50;1.60;;;11.60;99.90;;;13.06;100.00;100218.25;5029491;28;20037;-79
2023/08/09 02:17:31;;;;;;;3.50;1.73;;;11.50;99.90;;;13.25;100.00;100215.28;5027838;28;20033;-80
2023/08/09 02:19:58;;;;;;;2.78;1.77;;;11.50;99.90;;;13.25;100.00;100223.50;5018146;28;20037;-80
2023/08/09 02:22:25;;;;;;;4.35;1.80;;;11.40;99.90;;;13.27;100.00;100226.84;5030778;28;20073;-80
2023/08/09 02:24:54;;;;;;;5.60;2.05;;;11.30;99.90;;;13.05;100.00;100218.47;5024364;28;20053;-80
2023/08/09 02:27:19;;;;;;;4.00;2.10;;;11.20;99.90;;;13.17;100.00;100240.34;5028708;28;20033;-80
2023/08/09 02:29:46;;;;;;;3.08;1.90;;;11.10;99.90;;;13.17;100.00;100229.38;5042390;28;20030;-80
2023/08/09 02:32:12;;;;;;;3.70;2.25;;;11.10;99.90;;;13.16;100.00;100222.25;5025304;28;20346;-80
2023/08/09 02:34:37;;;;;;;4.03;2.10;;;11.00;99.90;;;13.20;100.00;100223.41;5024642;28;20048;-80
2023/08/09 02:37:04;;;;;;;4.97;2.00;;;11.00;99.90;;;13.04;100.00;100214.91;5030430;28;20044;-80
2023/08/09 02:39:31;;;;;;;4.80;2.13;;;11.00;99.90;;;12.45;100.00;100218.59;5024588;28;20440;-80
2023/08/09 02:41:58;;;;;;;3.63;2.13;;;10.90;99.90;;;12.21;100.00;100194.03;5029182;28;20045;-80
2023/08/09 02:44:25;;;;;;;4.65;2.35;;;10.90;99.90;;;12.08;100.00;100184.19;5017575;28;20450;-80
2023/08/09 02:46:51;;;;;;;5.15;2.05;;;10.80;99.90;;;12.04;100.00;100160.28;5016215;28;20057;-80
2023/08/09 02:49:16;;;;;;;5.38;2.63;;;10.70;99.90;;;12.65;100.00;100181.81;5025095;28;20041;-80
2023/08/09 02:51:44;;;;;;;3.85;2.42;;;10.70;99.90;;;12.57;100.00;100196.69;5028991;28;20033;-80
2023/08/09 02:54:10;;;;;;;6.20;2.75;;;10.60;99.90;;;12.73;100.00;100218.94;5025281;28;20072;-78
2023/08/09 02:56:36;;;;;;;6.28;2.78;;;10.60;99.90;;;12.09;100.00;100198.66;5044117;28;20477;-78
2023/08/09 02:59:02;;;;;;;5.22;2.72;;;10.60;99.90;;;11.98;100.00;100175.69;5028245;28;20044;-79
2023/08/09 03:01:29;;;;;;;5.10;2.50;;;10.60;99.90;;;11.92;100.00;100158.34;5016758;28;20034;-80
2023/08/09 03:03:56;;;;;;;5.03;2.67;;;10.60;99.90;;;11.83;100.00;100159.75;5029611;28;20056;-79
2023/08/09 03:06:24;;;;;;;5.55;2.88;;;10.60;99.90;;;12.05;100.00;100157.28;5041813;28;20029;-79
2023/08/09 03:08:52;;;;;;;4.80;2.72;;;10.60;99.90;;;11.75;100.00;100157.41;5036338;28;20149;-80
2023/08/09 03:11:25;;;;;;;7.18;2.95;;;10.50;99.90;;;12.25;100.00;100166.22;5019534;28;20053;-80
2023/08/09 03:13:55;;;;;;;4.20;2.80;;;10.40;99.90;;;12.41;100.00;100192.81;5036640;28;20505;-81
2023/08/09 03:16:22;;;;;;;6.22;3.10;;;10.40;99.90;;;12.22;100.00;100192.97;5035094;28;20128;-80
2023/08/09 03:18:49;;;;;;;7.45;3.45;;;10.50;99.90;;;12.40;100.00;100188.41;5044529;28;20114;-79
2023/08/09 03:21:15;;;;;;;5.57;3.05;;;10.50;99.90;;;12.21;100.00;100202.25;5017051;28;20037;-80
2023/08/09 03:23:42;;;;;;;7.28;3.72;;;10.60;99.90;;;12.59;100.00;100196.47;5020726;28;20037;-80
2023/08/09 03:26:07;;;;;;;6.93;4.03;;;10.60;99.90;;;11.71;100.00;100186.25;5038611;28;20042;-80
2023/08/09 03:28:33;;;;;;;6.55;4.13;;;10.60;99.90;;;11.99;100.00;100165.59;5020788;28;20029;-80
2023/08/09 03:31:05;;;;;;;8.07;3.90;;;10.70;99.90;;;12.06;100.00;100147.19;5037425;28;20519;-80
2023/08/09 03:33:38;;;;;;;6.05;3.50;;;10.70;99.90;;;12.01;100.00;100147.91;5038535;28;20037;-80
2023/08/09 03:36:06;;;;;;;8.80;4.10;;;10.70;99.90;;;11.92;100.00;100136.47;5036148;28;20033;-80
2023/08/09 03:38:32;;;;;;;7.03;3.95;;;10.70;99.90;;;12.42;100.00;100153.44;5024769;28;20113;-80
2023/08/09 03:40:58;;;;;;;10.02;4.00;;;10.70;99.90;;;12.07;100.00;100178.94;5026508;28;20136;-80
2023/08/09 03:43:25;;;;;;;6.88;3.55;;;10.70;99.90;;;11.91;100.00;100173.06;5029243;28;20080;-80
2023/08/09 03:45:50;;;;;;;7.95;3.90;;;10.70;99.90;;;12.41;100.00;100173.66;5043592;28;20029;-80
2023/08/09 03:48:19;;;;;;;8.88;4.18;;;10.70;99.90;;;11.97;100.00;100163.09;5012576;28;20122;-80
2023/08/09 03:50:45;;;;;;;7.13;4.28;;;10.70;99.90;;;11.91;100.00;100164.88;5044583;28;20033;-80
2023/08/09 03:53:12;;;;;;;6.70;4.38;;;10.70;99.90;;;12.45;100.00;100171.28;5030066;28;20029;-81
2023/08/09 03:55:42;;;;;;;9.35;4.53;;;10.70;99.90;;;12.04;100.00;100180.22;5022921;28;20030;-80
2023/08/09 03:58:07;;;;;;;7.75;5.28;;;10.70;99.90;;;12.17;100.00;100181.88;5019284;28;20451;-80
2023/08/09 04:00:33;;;;;;;7.40;4.60;;;10.70;99.90;;;12.30;100.00;100180.00;5028444;28;20033;-81
2023/08/09 04:02:59;;;;;;;8.25;4.95;;;10.70;99.90;;;12.35;100.00;100185.56;5044038;28;20111;-80
2023/08/09 04:05:25;;;;;;;9.15;4.63;;;10.80;99.90;;;12.29;100.00;100190.09;5028202;28;20044;-80
2023/08/09 04:07:51;;;;;;;8.65;5.20;;;10.80;99.90;;;12.32;100.00;100197.00;5016302;28;20045;-80
2023/08/09 04:10:17;;;;;;;8.00;5.20;;;10.80;99.90;;;12.16;100.00;100187.63;5032646;28;20041;-80
2023/08/09 04:12:43;;;;;;;9.75;5.20;;;10.80;99.90;;;12.31;100.00;100203.53;5023247;28;20470;-80
2023/08/09 04:15:10;;;;;;;8.93;5.18;;;10.80;99.90;;;12.40;100.00;100207.56;5028802;28;20030;-80
2023/08/09 04:17:35;;;;;;;10.80;5.43;;;10.80;99.90;;;12.37;100.00;100197.09;5029435;28;20044;-80
2023/08/09 04:20:03;;;;;;;10.25;5.20;;;10.90;99.90;;;12.32;100.00;100211.50;5026413;28;20045;-80
2023/08/09 04:22:29;;;;;;;11.67;5.63;;;10.90;99.90;;;12.40;100.00;100218.50;5028113;28;20042;-80
2023/08/09 04:24:54;;;;;;;11.55;5.88;;;11.00;99.90;;;12.36;100.00;100209.13;5028061;28;20045;-80
2023/08/09 04:27:22;;;;;;;11.00;5.72;;;11.10;99.90;;;12.49;100.00;100200.66;5028446;28;20184;-80
2023/08/09 04:29:48;;;;;;;11.07;6.25;;;11.10;99.90;;;12.42;100.00;100199.94;5037640;28;20136;-79
2023/08/09 04:32:13;;;;;;;12.30;6.00;;;11.20;99.90;;;12.58;100.00;100205.75;5023338;28;20033;-80
2023/08/09 04:34:39;;;;;;;10.85;6.28;;;11.20;99.90;;;12.66;100.00;100211.69;5027402;28;20056;-80
2023/08/09 04:37:05;;;;;;;8.73;5.75;;;11.20;99.90;;;12.73;100.00;100218.94;5027912;28;20029;-81
2023/08/09 04:39:31;;;;;;;10.85;6.07;;;11.30;99.90;;;12.68;100.00;100227.84;5021320;28;20460;-78
2023/08/09 04:41:57;;;;;;;11.57;6.20;;;11.40;99.90;;;12.95;100.00;100247.31;5026334;28;20393;-80
2023/08/09 04:44:25;;;;;;;10.23;6.03;;;11.30;99.90;;;12.66;100.00;100247.28;5022124;28;20038;-80
2023/08/09 04:46:50;;;;;;;11.27;6.60;;;11.40;99.90;;;12.76;100.00;100232.13;5016442;28;20046;-80
2023/08/09 04:49:16;;;;;;;9.95;5.97;;;11.40;99.90;;;12.91;100.00;100239.81;5024027;28;20038;-80
2023/08/09 04:51:42;;;;;;;12.80;6.03;;;11.40;99.90;;;13.00;100.00;100260.28;5028607;28;20045;-78
2023/08/09 04:54:08;;;;;;;11.43;5.93;;;11.40;99.90;;;12.94;100.00;100258.50;5028882;28;20103;-80
2023/08/09 04:56:34;;;;;;;13.38;6.10;;;11.40;99.90;;;12.88;100.00;100268.53;5022976;28;20045;-79
2023/08/09 04:58:59;;;;;;;10.57;6.53;;;11.40;99.90;;;12.84;100.00;100259.13;5023666;28;20037;-80
2023/08/09 05:01:25;;;;;;;13.80;6.78;;;11.40;99.90;;;12.73;100.00;100249.88;5026976;28;20053;-78
2023/08/09 05:03:54;;;;;;;13.25;7.03;;;11.40;99.90;;;12.88;100.00;100251.25;5021547;28;20385;-80
2023/08/09 05:06:22;;;;;;;12.10;6.93;;;11.40;99.90;;;12.81;100.00;100262.34;5013818;28;20386;-79
2023/08/09 05:08:48;;;;;;;14.60;6.63;;;11.50;99.90;;;12.83;100.00;100257.44;5022419;28;20768;-79
2023/08/09 05:11:13;;;;;;;11.05;6.93;;;11.50;99.90;;;12.87;100.00;100255.91;5015953;28;20141;-80
2023/08/09 05:13:39;;;;;;;12.40;6.88;;;11.60;99.90;;;13.16;100.00;100264.16;5022586;28;20065;-79
2023/08/09 05:16:05;;;;;;;11.70;6.80;;;11.60;99.90;;;13.43;100.00;100293.75;5023699;28;20044;-80
2023/08/09 05:18:31;;;;;;;13.55;6.88;;;11.70;99.90;;;13.43;100.00;100310.19;5024899;28;20047;-80
2023/08/09 05:20:58;;;;;;;11.98;7.22;;;11.70;99.90;;;13.41;100.00;100317.81;5018756;28;20579;-80
2023/08/09 05:23:23;;;;;;;9.55;7.03;;;11.80;99.90;;;13.59;100.00;100321.44;5031625;28;20041;-80
2023/08/09 05:25:49;;;;;;;12.90;7.25;;;11.90;99.90;;;13.58;100.00;100330.72;5026266;28;20045;-80
2023/08/09 05:28:15;;;;;;;11.80;6.65;;;11.90;99.90;;;13.65;100.00;100332.25;5029446;28;20034;-79
2023/08/09 05:30:41;;;;;;;11.30;7.50;;;12.00;99.90;;;13.85;100.00;100350.19;5031231;28;20033;-79
2023/08/09 05:33:07;;;;;;;11.57;6.45;;;12.10;99.90;;;14.05;100.00;100343.38;5031078;28;20044;-81
2023/08/09 05:35:33;;;;;;;11.70;6.50;;;12.20;99.90;;;14.13;100.00;100362.19;5037564;28;20047;-81
2023/08/09 05:37:58;;;;;;;11.93;6.00;;;12.30;99.90;;;13.68;100.00;100354.78;5030676;28;20030;-82
2023/08/09 05:40:24;;;;;;;11.07;6.03;;;12.50;99.90;;;13.81;100.00;100354.50;5031475;28;20128;-77
2023/08/09 05:42:50;;;;;;;9.65;5.72;;;12.60;99.90;;;13.95;100.00;100360.50;5036756;28;20435;-79
2023/08/09 05:45:16;;;;;;;11.13;5.30;;;12.70;99.90;;;14.04;100.00;100369.13;5022602;28;20045;-78
2023/08/09 05:47:41;;;;;;;8.77;5.35;;;12.80;99.90;;;14.24;100.00;100360.44;5025426;28;20061;-80
2023/08/09 05:50:07;;;;;;;13.68;5.53;;;12.90;99.90;;;14.37;100.00;100381.25;5016054;28;20040;-82
2023/08/09 05:52:34;;;;;;;7.47;4.80;;;13.00;99.90;;;14.45;100.00;100393.69;5019590;28;20099;-80
2023/08/09 05:54:59;;;;;;;8.80;4.25;;;13.20;99.90;;;14.61;100.00;100405.78;5032012;28;20041;-80
2023/08/09 05:57:25;;;;;;;7.97;4.10;;;13.30;99.90;;;14.86;100.00;100423.78;5027237;28;20049;-80
2023/08/09 05:59:51;;;;;;;5.65;4.03;;;13.40;99.90;;;14.78;100.00;100422.28;5031838;28;20037;-81
2023/08/09 06:02:17;;;;;;;8.18;4.10;;;13.50;99.90;;;14.73;100.00;100425.78;5021606;28;20041;-79
2023/08/09 06:04:43;;;;;;;8.13;3.90;;;13.70;99.90;;;14.94;100.00;100445.31;5032709;28;20049;-80
2023/08/09 06:07:09;;;;;;;6.88;3.65;;;13.70;99.90;;;15.08;100.00;100457.59;5030245;28;20037;-81
2023/08/09 06:09:35;;;;;;;7.07;3.50;;;13.80;99.90;;;15.15;100.00;100460.19;5031551;28;20037;-80
2023/08/09 06:12:04;;;;;;;9.55;3.35;;;13.90;99.90;;;15.10;100.00;100462.88;5019937;28;20083;-88
2023/08/09 06:14:30;;;;;;;8.23;3.55;;;14.00;99.90;;;14.98;100.00;100459.38;5027281;28;20038;-79
2023/08/09 06:16:56;;;;;;;6.53;3.25;;;14.10;99.90;;;15.02;100.00;100468.78;5029998;28;20050;-78
2023/08/09 06:19:22;;;;;;;5.65;3.22;;;14.10;99.90;;;14.89;100.00;100464.47;5031409;28;20033;-80
2023/08/09 06:21:48;;;;;;;9.95;3.35;;;14.20;99.90;;;15.29;100.00;100482.66;5023174;28;20045;-79
2023/08/09 06:24:14;;;;;;;7.18;2.75;;;14.20;99.90;;;15.35;100.00;100481.63;5029968;28;20473;-84
2023/08/09 06:26:39;;;;;;;8.48;3.40;;;14.40;99.90;;;15.38;100.00;100480.31;5027494;28;20026;-79
2023/08/09 06:29:09;;;;;;;8.98;2.88;;;14.50;99.90;;;15.29;100.00;100490.88;5031348;28;20044;-78
2023/08/09 06:31:35;;;;;;;8.25;2.63;;;14.60;99.90;;;15.66;100.00;100495.81;5017932;28;20026;-78
2023/08/09 06:34:01;;;;;;;7.15;2.70;;;14.70;99.90;;;15.76;100.00;100506.09;5017451;28;20124;-79
2023/08/09 06:36:27;;;;;;;7.90;2.50;;;14.80;99.90;;;15.61;100.00;100522.41;5018825;28;20378;-80
2023/08/09 06:38:52;;;;;;;8.23;2.15;;;14.90;99.90;;;15.70;100.00;100525.56;5030864;28;20485;-81
2023/08/09 06:41:18;;;;;;;6.68;2.33;;;14.90;99.90;;;15.55;100.00;100520.69;5037686;28;20084;-78
2023/08/09 06:43:44;;;;;;;9.93;2.70;;;14.90;99.90;;;15.65;100.00;100496.91;5017501;28;20044;-79
2023/08/09 06:46:11;;;;;;;7.75;2.42;;;15.00;99.90;;;15.93;100.00;100530.84;5030000;28;20030;-79
2023/08/09 06:48:36;;;;;;;8.13;2.28;;;15.10;99.90;;;15.94;100.00;100531.66;5032720;28;20036;-78
2023/08/09 06:51:02;;;;;;;5.25;1.92;;;15.10;99.90;;;16.03;100.00;100530.13;5059133;28;20042;-79
2023/08/09 06:53:28;;;;;;;5.32;2.20;;;15.20;99.90;;;16.28;100.00;100538.97;5027737;28;20121;-81
2023/08/09 06:55:54;;;;;;;4.45;2.00;;;15.30;99.90;;;16.08;100.00;100549.47;5015023;28;20029;-80
2023/08/09 06:58:20;;;;;;;7.70;2.00;;;15.30;99.90;;;16.00;100.00;100551.84;5024100;28;20375;-79
2023/08/09 07:00:46;;;;;;;4.53;1.63;;;15.30;99.90;;;16.02;100.00;100549.66;5018139;28;20045;-80
2023/08/09 07:03:13;;;;;;;7.15;2.05;;;15.30;99.90;;;16.47;100.00;100569.72;5016688;28;20038;-80
2023/08/09 07:05:40;;;;;;;3.88;1.75;;;15.40;99.90;;;16.25;100.00;100568.66;5028728;28;20148;-80
2023/08/09 07:08:06;;;;;;;5.33;1.80;;;15.50;99.90;;;16.35;100.00;100556.94;5028752;28;20052;-81
2023/08/09 07:10:32;;;;;;;4.20;1.90;;;15.50;99.90;;;16.06;100.00;100572.81;5025713;28;20038;-79
2023/08/09 07:12:58;;;;;;;4.53;1.55;;;15.50;99.90;;;16.37;100.00;100578.69;5022419;28;20116;-83
2023/08/09 07:15:23;;;;;;;4.25;1.67;;;15.60;99.90;;;16.00;100.00;100573.84;5040109;28;20073;-78
2023/08/09 07:17:49;;;;;;;7.50;1.83;;;15.50;99.90;;;16.28;100.00;100578.31;5026087;28;20088;-78
2023/08/09 07:20:15;;;;;;;4.95;1.70;;;15.60;99.90;;;16.23;100.00;100583.75;5028008;28;20389;-78
2023/08/09 07:22:45;;;;;;;4.32;1.75;;;15.70;99.90;;;16.51;100.00;100599.25;5029463;28;20481;-77
2023/08/09 07:25:16;;;;;;;3.88;1.52;;;15.80;99.90;;;16.47;100.00;100592.59;5044902;28;20033;-78
2023/08/09 07:27:47;;;;;;;6.28;1.70;;;15.90;99.90;;;16.38;100.00;100578.44;5042119;28;20038;-79
2023/08/09 07:30:17;;;;;;;6.18;2.00;;;15.90;99.90;;;16.73;100.00;100592.03;5016095;28;20044;-78
2023/08/09 07:32:44;;;;;;;4.50;1.50;;;16.10;99.90;;;16.91;100.00;100599.09;5023363;28;20485;-78
2023/08/09 07:35:11;;;;;;;4.53;1.80;;;16.20;99.90;;;16.94;100.00;100598.56;5028687;28;20084;-78
2023/08/09 07:37:41;;;;;;;4.97;1.70;;;16.30;99.90;;;17.44;100.00;100609.50;5016413;28;20549;-80
2023/08/09 07:40:09;;;;;;;5.93;1.83;;;16.40;99.90;;;16.96;100.00;100610.16;5029155;28;20037;-80
2023/08/09 07:42:35;;;;;;;8.05;1.50;;;16.40;99.90;;;16.94;100.00;100599.41;5021080;28;20429;-78
2023/08/09 07:45:03;;;;;;;5.65;1.38;;;16.30;99.90;;;16.78;100.00;100611.34;5043822;28;20374;-78
2023/08/09 07:47:29;;;;;;;6.10;1.67;;;16.40;99.90;;;16.77;100.00;100610.53;5029214;28;20035;-77
2023/08/09 07:49:55;;;;;;;5.88;1.60;;;16.30;99.90;;;16.94;100.00;100615.09;5028926;28;20033;-77
2023/08/09 07:52:20;;;;;;;5.07;1.33;;;16.30;99.90;;;17.55;100.00;100600.22;5018969;28;20034;-77
2023/08/09 07:54:46;;;;;;;6.38;1.73;;;16.60;99.90;;;17.42;100.00;100612.53;5027523;28;20382;-77
2023/08/09 07:57:12;;;;;;;5.53;1.58;;;16.70;99.90;;;17.56;100.00;100610.16;5029107;28;20037;-77
2023/08/09 07:59:38;;;;;;;6.07;1.65;;;16.80;99.90;;;17.63;100.00;100616.25;5027724;28;20079;-78
2023/08/09 08:02:04;;;;;;;4.57;1.63;;;17.00;99.90;;;17.09;100.00;100623.56;5028720;28;20052;-78
2023/08/09 08:04:30;;;;;;;9.13;1.55;;;16.80;99.90;;;17.11;100.00;100626.88;5027421;28;20091;-78
2023/08/09 08:06:56;;;;;;;3.13;1.75;;;16.80;99.90;;;16.85;100.00;100612.00;5024610;28;20025;-78
2023/08/09 08:09:24;;;;;;;4.45;1.27;;;16.60;99.90;;;17.36;100.00;100628.19;5043087;28;20025;-78
2023/08/09 08:11:51;;;;;;;7.03;1.55;;;16.70;99.90;;;17.34;100.00;100632.28;5021952;28;20052;-76
2023/08/09 08:14:18;;;;;;;6.13;1.30;;;16.80;99.90;;;17.92;100.00;100629.69;5027913;28;20091;-76
2023/08/09 08:16:44;;;;;;;5.13;1.50;;;17.00;99.90;;;18.01;100.00;100629.19;5027991;28;20065;-78
2023/08/09 08:19:10;;;;;;;5.18;1.50;;;17.30;99.90;;;17.97;100.00;100637.19;5021915;28;20511;-76
2023/08/09 08:21:35;;;;;;;4.35;1.20;;;17.20;99.90;;;17.85;100.00;100633.78;5041700;28;20092;-74
2023/08/09 08:24:04;;;;;;;4.57;1.58;;;17.30;99.90;;;18.24;100.00;100631.53;5028374;28;20419;-74
2023/08/09 08:26:30;;;;;;;6.63;1.30;;;17.50;99.90;;;18.16;100.00;100640.34;5023209;28;20041;-76
2023/08/09 08:28:56;;;;;;;4.57;1.50;;;17.60;99.90;;;18.47;100.00;100645.19;5042011;28;20066;-75
2023/08/09 08:31:22;;;;;;;5.22;1.48;;;17.70;99.90;;;18.43;100.00;100639.38;5019586;28;20041;-75
2023/08/09 08:33:49;;;;;;;6.40;1.45;;;17.80;99.90;;;18.22;100.00;100647.56;5027134;28;20046;-75
2023/08/09 08:36:16;;;;;;;5.93;1.20;;;17.80;99.90;;;18.36;100.00;100647.06;5028422;28;20034;-73
2023/08/09 08:38:43;;;;;;;4.47;1.42;;;17.80;99.90;;;18.15;100.00;100641.44;5028321;28;20064;-74
2023/08/09 08:41:10;;;;;;;5.77;1.33;;;17.90;99.90;;;17.90;100.00;100659.47;5028355;28;20112;-74
2023/08/09 08:43:36;;;;;;;6.73;1.20;;;17.70;99.90;;;17.53;100.00;100652.06;5028263;28;20056;-74
2023/08/09 08:46:04;;;;;;;5.43;1.40;;;17.50;99.90;;;17.56;100.00;100664.47;5022186;28;20033;-73
2023/08/09 08:48:35;;;;;;;;;;;17.30;99.90;;;18.13;100.00;100656.59;5042969;28;20079;-75
2023/08/09 08:51:05;;;;;;;2.85;1.17;;;17.60;99.90;;;18.38;100.00;100658.69;5027853;28;19976;-75
2023/08/09 08:53:32;;;;;;;6.60;1.23;;;17.90;99.90;;;18.79;100.00;100661.56;5027525;28;20124;-76
2023/08/09 08:55:58;;;;;;;5.32;1.08;;;18.20;99.90;;;19.66;100.00;100639.84;5028110;28;20056;-77
2023/08/09 08:58:24;;;;;;;4.15;1.00;;;18.70;99.90;;;19.00;100.00;100656.13;5029136;28;20037;-77
2023/08/09 09:00:49;;;;;;;3.63;1.00;;;18.80;99.90;;;18.85;100.00;100656.09;5027925;28;20047;-74
2023/08/09 09:03:15;;;;;;;7.25;1.38;;;18.40;99.90;;;18.54;100.00;100652.09;5028109;28;20033;-76
2023/08/09 09:05:41;;;;;;;4.30;1.27;;;18.40;99.90;;;19.32;100.00;100649.53;5041065;28;20099;-75
2023/08/09 09:08:08;;;;;;;5.22;1.30;;;18.50;99.90;;;19.83;100.00;100647.84;5021295;28;20042;-75
2023/08/09 09:10:33;;;;;;;4.15;1.10;;;18.80;99.90;;;20.49;100.00;100650.72;5030698;28;20041;-74
2023/08/09 09:12:59;;;;;;;5.20;1.17;;;19.30;99.90;;;20.75;100.00;100657.00;5028349;28;20056;-74
2023/08/09 09:15:27;;;;;;;3.42;0.90;;;19.70;99.90;;;20.12;98.32;100661.09;5019928;28;20100;-75
2023/08/09 09:17:53;;;;;;;1.92;0.80;;;19.70;99.90;;;19.20;100.00;100662.81;5025780;28;20112;-75
2023/08/09 09:20:24;;;;;;;3.08;0.80;;;19.10;99.90;;;19.49;100.00;100665.84;5030706;28;20113;-75
2023/08/09 09:22:53;;;;;;;3.78;1.10;;;18.90;99.90;;;19.55;100.00;100669.47;5030630;28;20025;-77
2023/08/09 09:25:22;;;;;;;6.22;1.10;;;18.90;99.90;;;20.17;100.00;100658.34;5032037;28;20033;-77
2023/08/09 09:27:52;;;;;;;3.67;1.02;;;19.30;99.90;;;20.04;100.00;100654.22;5032098;28;20037;-77
2023/08/09 09:30:21;;;;;;;4.45;1.20;;;19.30;99.90;;;20.28;100.00;100650.81;5022541;28;20049;-77
2023/08/09 09:32:58;;;;;;;3.38;1.10;;;19.50;99.90;;;20.47;100.00;100664.03;5031004;28;20029;-75
2023/08/09 09:35:27;;;;;;;3.33;1.08;;;19.70;99.90;;;20.16;99.11;100665.00;5016934;28;20041;-75
2023/08/09 09:37:56;;;;;;;4.18;1.10;;;19.60;99.90;;;19.70;100.00;100660.31;5028911;28;20029;-75
2023/08/09 09:40:27;;;;;;;2.72;0.80;;;19.80;99.90;;;20.16;100.00;100656.69;5028951;28;20037;-76
2023/08/09 09:42:54;;;;;;;2.58;1.05;;;20.20;99.90;;;20.33;98.79;100650.81;5044568;28;20038;-75
2023/08/09 09:45:25;;;;;;;4.13;1.02;;;20.50;98.40;;;19.55;83.34;100648.16;5024825;28;20030;-78
2023/08/09 09:47:54;;;;;;;4.05;0.90;;;20.50;90.60;;;19.35;87.34;100660.03;5028246;28;20061;-75
2023/08/09 09:50:26;;;;;;;5.25;0.90;;;20.00;91.70;;;19.05;97.43;100658.91;5029922;28;20061;-75
2023/08/09 09:52:52;;;;;;;3.70;1.00;;;19.70;94.70;;;18.61;99.33;100662.09;5030116;28;20390;-75
2023/08/09 09:55:20;;;;;;;4.25;1.00;;;19.20;95.30;;;19.20;99.88;100662.81;5030313;28;20034;-75
2023/08/09 09:57:49;;;;;;;3.17;1.08;;;19.30;96.80;;;20.00;93.34;100652.28;5031308;28;20144;-75
2023/08/09 10:00:15;;;;;;;3.47;1.00;;;19.80;95.90;;;20.42;93.17;100656.56;5030451;28;20037;-74
2023/08/09 10:02:50;;;;;;;4.70;1.20;;;20.50;95.30;;;19.52;89.46;100645.13;5018521;28;20392;-75
2023/08/09 10:05:26;;;;;;;2.72;0.70;;;20.20;92.40;;;19.86;95.33;100663.06;5045385;28;20033;-75